Time;durP1;ratioP1;P1;durP2;ratioP2;P2;SDS_P1;SDS_P2;PMS_P1;PMS_P2;Temp;Humidity;BMP_temperature;BMP_pressure;BME280_temperature;BME280_humidity;BME280_pressure;Samples;Min_cycle;Max_cycle;Signal;HPM_P1;HPM_P2
2022/03/10 00:01:16;;;;;;;38.47;20.60;;;;;;;1.78;68.86;102287.09;5032440;28;20088;-75
2022/03/10 00:03:41;;;;;;;39.00;21.73;;;;;;;1.76;69.32;102288.72;5033122;28;20053;-75
2022/03/10 00:06:06;;;;;;;37.35;21.70;;;;;;;1.71;69.74;102295.41;5033056;28;20036;-75
2022/03/10 00:08:32;;;;;;;40.30;21.52;;;;;;;1.68;70.22;102301.31;5032793;28;20029;-75
2022/03/10 00:10:57;;;;;;;42.40;22.65;;;;;;;1.66;70.57;102299.50;5043716;28;20029;-75
2022/03/10 00:13:26;;;;;;;43.28;22.13;;;;;;;1.62;70.50;102301.94;5052697;28;20028;-75
2022/03/10 00:15:51;;;;;;;39.65;22.48;;;;;;;1.55;70.32;102299.97;5052550;28;20025;-75
2022/03/10 00:18:17;;;;;;;46.35;21.85;;;;;;;1.54;71.53;102311.09;5051687;28;20492;-75
2022/03/10 00:20:42;;;;;;;41.13;22.58;;;;;;;1.53;70.32;102311.88;5035151;28;20120;-75
2022/03/10 00:23:07;;;;;;;41.38;22.98;;;;;;;1.50;70.35;102304.06;5032694;28;20032;-75
2022/03/10 00:25:33;;;;;;;43.90;22.23;;;;;;;1.50;70.16;102301.50;5037633;28;20024;-75
2022/03/10 00:27:58;;;;;;;41.53;20.95;;;;;;;1.47;70.35;102297.94;5052173;28;20049;-75
2022/03/10 00:30:24;;;;;;;40.47;21.60;;;;;;;1.46;70.76;102303.91;5042316;28;20042;-75
2022/03/10 00:32:51;;;;;;;46.45;22.88;;;;;;;1.44;71.22;102300.38;5031565;28;20032;-75
2022/03/10 00:35:25;;;;;;;40.30;21.08;;;;;;;1.39;71.44;102297.66;5033142;28;20028;-75
2022/03/10 00:37:51;;;;;;;43.63;21.90;;;;;;;1.33;71.26;102293.16;5032140;28;20113;-75
2022/03/10 00:40:17;;;;;;;44.20;21.50;;;;;;;1.34;70.88;102300.06;5030992;28;20037;-75
2022/03/10 00:42:43;;;;;;;42.38;21.65;;;;;;;1.30;72.04;102308.47;5032199;28;20032;-75
2022/03/10 00:45:10;;;;;;;37.90;21.65;;;;;;;1.27;70.75;102297.19;5031778;28;20030;-75
2022/03/10 00:47:36;;;;;;;42.95;22.00;;;;;;;1.22;71.34;102303.88;5032350;28;20075;-75
2022/03/10 00:50:04;;;;;;;38.60;21.58;;;;;;;1.21;72.19;102308.13;5033317;28;20516;-75
2022/03/10 00:52:29;;;;;;;46.40;22.50;;;;;;;1.19;72.50;102308.88;5048965;28;20059;-75
2022/03/10 00:54:55;;;;;;;44.60;22.55;;;;;;;1.16;72.66;102309.63;5051700;28;20057;-75
2022/03/10 00:57:21;;;;;;;41.33;21.88;;;;;;;1.14;72.49;102313.81;5051908;28;20074;-75
2022/03/10 00:59:46;;;;;;;44.80;22.35;;;;;;;1.11;72.19;102303.44;5042942;28;20098;-75
2022/03/10 01:02:12;;;;;;;41.65;22.20;;;;;;;1.04;72.01;102302.31;5031750;28;20485;-75
2022/03/10 01:04:37;;;;;;;39.00;21.63;;;;;;;1.04;72.78;102306.59;5031821;28;20025;-75
2022/03/10 01:07:03;;;;;;;38.78;21.63;;;;;;;1.03;72.72;102308.28;5031351;28;20036;-75
2022/03/10 01:09:28;;;;;;;41.10;22.10;;;;;;;0.99;73.74;102311.56;5044582;28;20639;-75
2022/03/10 01:11:53;;;;;;;44.08;23.08;;;;;;;0.99;73.17;102313.25;5051031;28;20028;-75
2022/03/10 01:14:19;;;;;;;42.58;22.42;;;;;;;0.94;73.47;102311.34;5050703;28;20029;-75
2022/03/10 01:16:44;;;;;;;43.50;23.00;;;;;;;0.88;73.15;102311.16;5051598;28;20087;-75
2022/03/10 01:19:10;;;;;;;42.30;22.33;;;;;;;0.85;73.74;102315.25;5043615;28;20009;-74
2022/03/10 01:21:35;;;;;;;39.10;22.08;;;;;;;0.77;73.30;102308.94;5030881;28;20026;-75
2022/03/10 01:24:00;;;;;;;39.75;22.05;;;;;;;0.75;74.68;102311.44;5031773;28;20028;-75
2022/03/10 01:26:26;;;;;;;44.83;22.90;;;;;;;0.72;74.36;102305.31;5049138;28;20104;-75
2022/03/10 01:28:51;;;;;;;45.78;22.10;;;;;;;0.74;74.96;102304.56;5050804;28;20443;-75
2022/03/10 01:31:17;;;;;;;51.10;24.13;;;;;;;0.70;75.01;102312.97;5044047;28;20484;-75
2022/03/10 01:33:42;;;;;;;40.20;21.98;;;;;;;0.68;74.45;102305.19;5035620;28;20125;-75
2022/03/10 01:36:08;;;;;;;38.33;21.67;;;;;;;0.65;74.63;102309.31;5035207;28;20481;-75
2022/03/10 01:38:33;;;;;;;44.47;23.17;;;;;;;0.61;75.06;102310.88;5035295;28;20026;-75
2022/03/10 01:40:58;;;;;;;41.97;22.73;;;;;;;0.61;75.71;102307.44;5038020;28;20123;-75
2022/03/10 01:43:24;;;;;;;42.05;22.45;;;;;;;0.58;75.31;102305.63;5054638;28;20384;-75
2022/03/10 01:45:49;;;;;;;42.75;22.92;;;;;;;0.57;75.60;102310.72;5046149;28;20037;-75
2022/03/10 01:48:14;;;;;;;38.72;22.15;;;;;;;0.51;76.68;102303.63;5035234;28;20046;-75
2022/03/10 01:50:40;;;;;;;42.17;23.08;;;;;;;0.51;76.11;102297.63;5034244;28;20021;-75
2022/03/10 01:53:05;;;;;;;42.67;22.77;;;;;;;0.50;77.28;102307.03;5036395;28;20048;-75
2022/03/10 01:55:31;;;;;;;38.55;21.95;;;;;;;0.46;76.24;102295.75;5034617;28;20381;-75
2022/03/10 01:57:58;;;;;;;43.47;22.88;;;;;;;0.44;76.84;102305.06;5042316;28;20025;-74
2022/03/10 02:00:23;;;;;;;45.75;22.70;;;;;;;0.39;77.17;102295.44;5054999;28;20029;-75
2022/03/10 02:02:48;;;;;;;42.88;23.45;;;;;;;0.40;76.89;102294.63;5053882;28;20035;-75
2022/03/10 02:05:14;;;;;;;42.13;21.73;;;;;;;0.37;77.18;102294.50;5054921;28;20025;-75
2022/03/10 02:10:28;;;;;;;44.08;21.38;;;;;;;0.30;76.86;102295.94;5051812;28;20095;-75
2022/03/10 02:12:54;;;;;;;40.75;23.15;;;;;;;0.26;77.32;102290.59;5045587;28;20051;-75
2022/03/10 02:18:07;;;;;;;42.78;22.38;;;;;;;0.20;77.79;102292.13;5054261;28;20397;-75
2022/03/10 02:20:33;;;;;;;48.22;23.40;;;;;;;0.16;77.41;102297.94;5054617;28;20029;-75
2022/03/10 02:22:58;;;;;;;42.47;22.75;;;;;;;0.18;77.34;102286.03;5036837;28;20037;-75
2022/03/10 02:25:24;;;;;;;44.33;23.70;;;;;;;0.15;78.09;102285.91;5033876;28;20041;-75
2022/03/10 02:27:52;;;;;;;43.63;23.35;;;;;;;0.12;78.46;102293.47;5051402;28;20043;-75
2022/03/10 02:30:19;;;;;;;42.50;23.30;;;;;;;0.11;77.97;102289.16;5041127;28;20048;-75
2022/03/10 02:32:45;;;;;;;44.92;23.55;;;;;;;0.08;78.14;102294.16;5033586;28;20036;-75
2022/03/10 02:35:10;;;;;;;45.42;24.00;;;;;;;0.03;79.26;102290.50;5034716;28;20022;-75
2022/03/10 02:37:36;;;;;;;48.88;23.88;;;;;;;-0.01;78.59;102293.75;5034375;28;20087;-74
2022/03/10 02:40:03;;;;;;;42.97;22.95;;;;;;;-0.04;78.34;102296.19;5042875;28;20033;-75
2022/03/10 02:42:30;;;;;;;48.55;23.67;;;;;;;-0.05;79.30;102292.75;5054171;28;20052;-74
2022/03/10 02:44:55;;;;;;;44.42;23.63;;;;;;;-0.05;79.38;102294.44;5038584;28;20025;-74
2022/03/10 02:47:21;;;;;;;43.92;23.17;;;;;;;-0.08;79.81;102290.06;5035092;28;20082;-75
2022/03/10 02:49:46;;;;;;;44.45;23.73;;;;;;;-0.11;79.39;102296.72;5038838;28;20052;-75
2022/03/10 02:52:11;;;;;;;42.35;22.52;;;;;;;-0.15;79.13;102297.41;5053069;28;20033;-75
2022/03/10 02:54:37;;;;;;;40.20;22.48;;;;;;;-0.19;80.11;102282.72;5053827;28;20041;-75
2022/03/10 02:57:03;;;;;;;45.42;23.55;;;;;;;-0.24;79.78;102287.63;5054048;28;20391;-74
2022/03/10 02:59:28;;;;;;;43.25;23.55;;;;;;;-0.27;79.92;102282.38;5052627;28;20291;-74
2022/03/10 03:01:56;;;;;;;42.75;23.35;;;;;;;-0.29;80.43;102281.44;5053339;28;20059;-74
2022/03/10 03:04:22;;;;;;;47.90;23.95;;;;;;;-0.26;80.78;102292.69;5053745;28;20445;-75
2022/03/10 03:06:47;;;;;;;45.40;23.75;;;;;;;-0.37;80.19;102272.53;5053185;28;20111;-74
2022/03/10 03:09:12;;;;;;;47.15;23.52;;;;;;;-0.33;80.70;102292.34;5053847;28;20117;-74
2022/03/10 03:11:37;;;;;;;42.60;23.40;;;;;;;-0.34;81.00;102283.78;5052680;28;20036;-74
2022/03/10 03:14:04;;;;;;;43.60;23.20;;;;;;;-0.36;80.93;102284.53;5053297;28;20378;-74
2022/03/10 03:16:30;;;;;;;43.42;23.70;;;;;;;-0.41;80.73;102294.59;5053449;28;20373;-74
2022/03/10 03:18:55;;;;;;;49.08;23.92;;;;;;;-0.43;81.26;102287.63;5053383;28;20032;-75
2022/03/10 03:21:21;;;;;;;42.85;22.48;;;;;;;-0.49;81.23;102296.81;5052586;28;20037;-75
2022/03/10 03:23:47;;;;;;;44.17;23.65;;;;;;;-0.53;81.39;102302.56;5053659;28;20028;-74
2022/03/10 03:26:12;;;;;;;46.33;22.88;;;;;;;-0.56;81.39;102301.56;5052887;28;20040;-75
2022/03/10 03:28:37;;;;;;;43.85;22.88;;;;;;;-0.55;81.52;102300.78;5052611;28;20124;-75
2022/03/10 03:31:03;;;;;;;46.20;22.48;;;;;;;-0.59;81.67;102309.09;5053288;28;20032;-74
2022/03/10 03:33:29;;;;;;;44.78;23.90;;;;;;;-0.64;81.98;102308.91;5053165;28;20453;-75
2022/03/10 03:35:55;;;;;;;46.78;24.13;;;;;;;-0.65;82.07;102308.84;5052390;28;20025;-75
2022/03/10 03:38:20;;;;;;;45.97;23.27;;;;;;;-0.66;82.43;102309.66;5052919;28;20029;-74
2022/03/10 03:40:45;;;;;;;45.55;22.80;;;;;;;-0.69;82.76;102310.38;5052817;28;20465;-74
2022/03/10 03:43:10;;;;;;;46.10;24.30;;;;;;;-0.69;83.20;102310.38;5052337;28;20061;-75
2022/03/10 03:45:36;;;;;;;44.85;23.23;;;;;;;-0.68;82.67;102307.03;5053266;28;20468;-74
2022/03/10 03:48:01;;;;;;;47.08;23.58;;;;;;;-0.68;83.26;102307.03;5052461;28;20021;-75
2022/03/10 03:50:26;;;;;;;46.63;23.88;;;;;;;-0.68;83.32;102312.16;5052737;28;20044;-74
2022/03/10 03:52:51;;;;;;;48.80;24.90;;;;;;;-0.79;83.29;102298.84;5052592;28;20480;-74
2022/03/10 03:55:17;;;;;;;44.00;23.63;;;;;;;-0.77;83.15;102309.16;5051193;28;20144;-74
2022/03/10 03:57:42;;;;;;;50.67;24.95;;;;;;;-0.78;83.17;102317.66;5052871;28;20388;-75
2022/03/10 04:00:10;;;;;;;44.38;23.35;;;;;;;-0.83;83.48;102324.25;5052426;28;20477;-75
2022/03/10 04:02:36;;;;;;;47.35;23.42;;;;;;;-0.88;83.22;102321.47;5052183;28;20029;-75
2022/03/10 04:05:02;;;;;;;45.45;24.10;;;;;;;-0.85;83.56;102326.75;5053077;28;20108;-74
2022/03/10 04:07:27;;;;;;;49.70;24.85;;;;;;;-0.86;83.88;102332.66;5051994;28;20025;-74
2022/03/10 04:09:53;;;;;;;48.60;24.95;;;;;;;-0.88;84.16;102325.69;5051448;28;20037;-74
2022/03/10 04:12:18;;;;;;;48.47;24.35;;;;;;;-0.91;84.46;102339.25;5052437;28;20473;-74
2022/03/10 04:14:43;;;;;;;50.85;24.13;;;;;;;-0.93;84.39;102338.28;5052319;28;20079;-74
2022/03/10 04:17:09;;;;;;;44.05;23.08;;;;;;;-0.97;84.43;102336.41;5052212;28;20511;-74
2022/03/10 04:19:34;;;;;;;49.33;23.33;;;;;;;-0.97;84.93;102337.28;5052216;28;20024;-75
2022/03/10 04:22:00;;;;;;;46.63;23.15;;;;;;;-0.96;84.69;102344.13;5052329;28;20032;-74
2022/03/10 04:24:25;;;;;;;46.85;23.85;;;;;;;-0.94;85.54;102344.22;5051606;28;20025;-74
2022/03/10 04:26:50;;;;;;;46.58;24.20;;;;;;;-0.99;85.20;102335.44;5051697;28;20025;-74
2022/03/10 04:29:16;;;;;;;47.47;24.13;;;;;;;-0.98;85.21;102342.34;5052163;28;20469;-74
2022/03/10 04:31:42;;;;;;;47.15;23.77;;;;;;;-1.01;85.27;102334.50;5051474;28;20035;-75
2022/03/10 04:34:07;;;;;;;48.00;23.00;;;;;;;-1.06;85.51;102330.84;5052584;28;20464;-74
2022/03/10 04:36:33;;;;;;;46.17;23.17;;;;;;;-1.05;85.43;102336.00;5051961;28;20029;-74
2022/03/10 04:38:58;;;;;;;48.47;23.48;;;;;;;-1.07;85.27;102326.53;5051418;28;20029;-74
2022/03/10 04:41:23;;;;;;;45.88;23.63;;;;;;;-1.06;85.66;102338.50;5051730;28;20087;-74
2022/03/10 04:43:48;;;;;;;49.28;23.30;;;;;;;-1.08;85.81;102330.78;5052417;28;20028;-74
2022/03/10 04:46:14;;;;;;;47.40;22.52;;;;;;;-1.06;85.97;102333.38;5051286;28;20051;-74
2022/03/10 04:48:39;;;;;;;46.00;23.83;;;;;;;-1.11;85.95;102330.63;5042364;28;20061;-75
2022/03/10 04:51:05;;;;;;;45.92;22.05;;;;;;;-1.12;86.09;102328.84;5033521;28;20052;-74
2022/03/10 04:53:30;;;;;;;45.45;22.73;;;;;;;-1.10;85.96;102336.63;5031186;28;20022;-74
2022/03/10 04:55:55;;;;;;;48.70;24.65;;;;;;;-1.14;86.13;102332.16;5031891;28;20065;-74
2022/03/10 04:58:21;;;;;;;45.42;23.02;;;;;;;-1.14;86.23;102338.16;5047585;28;20110;-74
2022/03/10 05:00:46;;;;;;;50.45;24.17;;;;;;;-1.15;86.45;102338.06;5051317;28;20029;-74
2022/03/10 05:03:13;;;;;;;48.33;22.90;;;;;;;-1.19;86.51;102332.78;5051839;28;20472;-74
2022/03/10 05:05:38;;;;;;;47.47;22.75;;;;;;;-1.21;86.35;102328.41;5050447;28;20036;-74
2022/03/10 05:08:03;;;;;;;50.55;23.45;;;;;;;-1.21;86.70;102331.88;5051796;28;20021;-74
2022/03/10 05:10:29;;;;;;;47.00;23.17;;;;;;;-1.21;86.41;102333.50;5050446;28;20041;-74
2022/03/10 05:12:57;;;;;;;43.55;22.65;;;;;;;-1.25;86.47;102335.06;5048341;28;20056;-74
2022/03/10 05:15:23;;;;;;;46.78;22.95;;;;;;;-1.26;86.81;102332.44;5031797;28;20060;-74
2022/03/10 05:17:50;;;;;;;45.50;22.58;;;;;;;-1.28;86.77;102336.59;5049923;28;20104;-74
2022/03/10 05:20:16;;;;;;;48.22;23.20;;;;;;;-1.31;87.06;102344.13;5050809;28;20376;-74
2022/03/10 05:22:44;;;;;;;47.33;22.77;;;;;;;-1.35;86.96;102344.78;5051172;28;20036;-74
2022/03/10 05:25:14;;;;;;;45.63;22.63;;;;;;;-1.38;87.03;102350.59;5051628;28;20103;-74
2022/03/10 05:27:39;;;;;;;47.58;23.63;;;;;;;-1.42;87.32;102343.59;5050526;28;20024;-74
2022/03/10 05:30:06;;;;;;;42.28;21.98;;;;;;;-1.43;87.29;102352.09;5043927;28;20038;-74
2022/03/10 05:32:31;;;;;;;47.92;22.85;;;;;;;-1.44;87.00;102348.66;5045807;28;20484;-74
2022/03/10 05:34:56;;;;;;;50.20;23.85;;;;;;;-1.56;87.15;102335.25;5050464;28;20156;-74
2022/03/10 05:37:22;;;;;;;48.80;22.88;;;;;;;-1.50;87.08;102345.78;5051368;28;20036;-74
2022/03/10 05:39:48;;;;;;;45.15;22.42;;;;;;;-1.52;87.54;102342.25;5046121;28;20474;-74
2022/03/10 05:42:13;;;;;;;45.70;22.63;;;;;;;-1.52;87.55;102354.19;5042480;28;20040;-74
2022/03/10 05:44:38;;;;;;;43.25;22.42;;;;;;;-1.56;87.48;102348.03;5042579;28;20528;-74
2022/03/10 05:47:05;;;;;;;45.08;22.20;;;;;;;-1.56;87.35;102353.16;5031760;28;20028;-74
2022/03/10 05:49:30;;;;;;;42.83;22.33;;;;;;;-1.55;88.36;102338.69;5032302;28;20428;-74
2022/03/10 05:51:56;;;;;;;42.03;22.17;;;;;;;-1.57;87.88;102341.16;5039559;28;20045;-74
2022/03/10 05:54:21;;;;;;;46.63;22.80;;;;;;;-1.57;87.73;102337.72;5031325;28;20035;-74
2022/03/10 05:56:46;;;;;;;51.20;23.25;;;;;;;-1.56;88.69;102344.59;5030401;28;20034;-75
2022/03/10 05:59:12;;;;;;;46.67;23.45;;;;;;;-1.56;87.94;102345.47;5031448;28;20026;-74
2022/03/10 06:01:37;;;;;;;43.58;21.10;;;;;;;-1.60;88.31;102347.78;5047273;28;20017;-74
2022/03/10 06:04:03;;;;;;;48.95;23.50;;;;;;;-1.58;88.35;102344.50;5051357;28;20040;-74
2022/03/10 06:06:28;;;;;;;46.13;22.77;;;;;;;-1.65;88.21;102335.66;5051086;28;20021;-75
2022/03/10 06:08:53;;;;;;;47.58;22.95;;;;;;;-1.57;88.44;102338.63;5050284;28;20021;-74
2022/03/10 06:11:18;;;;;;;46.03;23.98;;;;;;;-1.56;88.02;102344.59;5044800;28;20024;-74
2022/03/10 06:13:44;;;;;;;45.47;21.98;;;;;;;-1.57;88.19;102348.84;5031316;28;20048;-74
2022/03/10 06:16:09;;;;;;;45.72;21.92;;;;;;;-1.58;88.09;102343.63;5030632;28;20535;-74
2022/03/10 06:18:34;;;;;;;49.47;22.27;;;;;;;-1.58;88.18;102341.09;5033818;28;20040;-74
2022/03/10 06:21:00;;;;;;;47.42;22.75;;;;;;;-1.55;88.44;102348.91;5046842;28;20479;-74
2022/03/10 06:23:25;;;;;;;44.65;22.88;;;;;;;-1.55;88.06;102344.66;5052743;28;20035;-74
2022/03/10 06:25:50;;;;;;;47.95;22.52;;;;;;;-1.54;88.27;102348.09;5054501;28;20021;-74
2022/03/10 06:28:16;;;;;;;49.50;22.83;;;;;;;-1.51;87.98;102349.13;5054464;28;20032;-74
2022/03/10 06:30:41;;;;;;;46.88;21.48;;;;;;;-1.46;88.43;102352.81;5051872;28;20088;-74
2022/03/10 06:33:06;;;;;;;45.08;22.75;;;;;;;-1.42;88.29;102351.28;5054521;28;20035;-74
2022/03/10 06:35:32;;;;;;;43.55;21.58;;;;;;;-1.43;88.35;102345.28;5054429;28;20029;-74
2022/03/10 06:37:57;;;;;;;51.50;22.33;;;;;;;-1.36;87.99;102348.16;5048686;28;20029;-74
2022/03/10 06:40:22;;;;;;;46.50;23.15;;;;;;;-1.28;87.85;102347.69;5040879;28;20384;-74
2022/03/10 06:42:47;;;;;;;49.85;23.80;;;;;;;-1.19;87.54;102354.97;5053733;28;20025;-74
2022/03/10 06:45:13;;;;;;;45.08;22.58;;;;;;;-1.14;87.18;102350.06;5053652;28;20511;-74
2022/03/10 06:47:38;;;;;;;44.03;21.88;;;;;;;-1.05;86.90;102345.38;5054041;28;20025;-74
2022/03/10 06:50:06;;;;;;;46.92;23.35;;;;;;;-0.99;86.66;102354.22;5050968;28;20068;-74
2022/03/10 06:52:31;;;;;;;45.60;21.75;;;;;;;-0.87;86.79;102356.50;5039802;28;20044;-74
2022/03/10 06:54:57;;;;;;;43.08;22.40;;;;;;;-0.82;86.30;102365.28;5053776;28;20029;-74
2022/03/10 06:57:22;;;;;;;49.47;21.83;;;;;;;-0.76;86.08;102360.44;5053658;28;20029;-75
2022/03/10 06:59:47;;;;;;;47.60;22.42;;;;;;;-0.72;86.40;102364.91;5051471;28;20480;-74
2022/03/10 07:02:12;;;;;;;47.20;23.17;;;;;;;-0.69;86.19;102359.03;5053037;28;20040;-74
2022/03/10 07:04:38;;;;;;;44.35;21.30;;;;;;;-0.61;85.78;102360.28;5053913;28;20053;-74
2022/03/10 07:07:03;;;;;;;46.60;22.00;;;;;;;-0.55;86.03;102364.81;5039544;28;20385;-74
2022/03/10 07:09:29;;;;;;;55.65;22.13;;;;;;;-0.50;85.61;102368.47;5033827;28;20503;-74
2022/03/10 07:11:54;;;;;;;48.40;23.70;;;;;;;-0.39;85.29;102361.25;5034657;28;20029;-74
2022/03/10 07:14:20;;;;;;;46.13;22.98;;;;;;;-0.28;85.37;102366.06;5033403;28;20116;-74
2022/03/10 07:16:45;;;;;;;49.42;22.92;;;;;;;-0.13;84.24;102363.34;5033823;28;20053;-75
2022/03/10 07:19:10;;;;;;;52.65;23.40;;;;;;;-0.02;84.03;102359.53;5033019;28;20401;-75
2022/03/10 07:21:39;;;;;;;51.25;23.30;;;;;;;0.16;84.50;102367.19;5034748;28;20040;-75
2022/03/10 07:24:05;;;;;;;51.17;23.67;;;;;;;0.34;83.19;102363.63;5033676;28;20025;-74
2022/03/10 07:26:31;;;;;;;43.80;22.25;;;;;;;0.49;82.51;102364.31;5032653;28;20044;-75
2022/03/10 07:28:59;;;;;;;43.47;23.38;;;;;;;0.64;81.45;102369.19;5032560;28;20485;-75
2022/03/10 07:31:25;;;;;;;47.10;22.85;;;;;;;0.82;81.82;102369.06;5045308;28;20048;-74
2022/03/10 07:33:50;;;;;;;51.28;24.83;;;;;;;0.96;80.20;102359.34;5044441;28;20017;-75
2022/03/10 07:36:15;;;;;;;45.55;22.30;;;;;;;1.19;80.11;102360.25;5036657;28;20032;-74
2022/03/10 07:38:41;;;;;;;41.40;22.08;;;;;;;1.27;79.65;102351.16;5052784;28;20036;-74
2022/03/10 07:41:06;;;;;;;52.30;23.15;;;;;;;1.42;79.25;102359.47;5057845;28;20028;-74
2022/03/10 07:43:32;;;;;;;49.17;22.60;;;;;;;1.48;79.62;102357.13;5072239;28;20071;-74
2022/03/10 07:45:57;;;;;;;47.05;22.85;;;;;;;1.68;77.67;102360.44;5049402;28;20030;-75
2022/03/10 07:48:22;;;;;;;51.20;23.35;;;;;;;1.83;77.54;102357.53;5032122;28;20152;-75
2022/03/10 07:50:48;;;;;;;43.92;21.70;;;;;;;1.98;76.64;102357.22;5032980;28;20026;-75
2022/03/10 07:53:13;;;;;;;45.92;22.20;;;;;;;2.17;77.00;102358.78;5032970;28;20026;-75
2022/03/10 07:55:38;;;;;;;48.28;22.45;;;;;;;2.33;75.33;102356.78;5040413;28;20061;-75
2022/03/10 07:58:03;;;;;;;46.28;21.73;;;;;;;2.50;73.77;102351.34;5057866;28;20056;-75
2022/03/10 08:00:31;;;;;;;45.05;21.60;;;;;;;2.72;73.47;102353.81;5072054;28;20093;-75
2022/03/10 08:02:56;;;;;;;45.90;22.48;;;;;;;2.88;72.30;102344.88;5072000;28;20854;-75
2022/03/10 08:05:22;;;;;;;41.28;20.63;;;;;;;3.05;71.88;102346.28;5056044;28;20105;-75
2022/03/10 08:07:47;;;;;;;44.83;22.30;;;;;;;3.12;71.96;102341.31;5038548;28;20030;-75
2022/03/10 08:10:12;;;;;;;46.30;21.98;;;;;;;3.26;71.21;102342.59;5037620;28;20033;-75
2022/03/10 08:12:37;;;;;;;51.22;21.67;;;;;;;3.44;69.17;102347.47;5055454;28;20082;-75
2022/03/10 08:15:03;;;;;;;47.55;22.02;;;;;;;3.60;68.55;102334.19;5051502;28;20017;-75
2022/03/10 08:17:29;;;;;;;39.50;20.35;;;;;;;3.71;69.97;102344.81;5051462;28;20252;-75
2022/03/10 08:19:55;;;;;;;44.40;21.60;;;;;;;3.81;68.09;102349.38;5052840;28;20025;-76
2022/03/10 08:22:21;;;;;;;43.85;20.70;;;;;;;3.98;66.15;102350.72;5063012;28;20033;-74
2022/03/10 08:24:47;;;;;;;42.38;22.00;;;;;;;4.08;66.96;102350.97;5053131;28;20397;-75
2022/03/10 08:27:15;;;;;;;42.65;21.80;;;;;;;4.22;65.23;102344.50;5071633;28;20040;-75
2022/03/10 08:29:41;;;;;;;45.13;20.98;;;;;;;4.28;66.04;102343.78;5051816;28;20465;-75
2022/03/10 08:32:07;;;;;;;40.05;20.23;;;;;;;4.37;64.89;102344.88;5048624;28;20017;-75
2022/03/10 08:34:32;;;;;;;42.42;20.85;;;;;;;4.47;64.29;102346.88;5049232;28;20090;-75
2022/03/10 08:36:58;;;;;;;43.15;20.23;;;;;;;4.60;64.08;102339.44;5051388;28;20025;-75
2022/03/10 08:39:23;;;;;;;40.15;20.95;;;;;;;4.67;63.26;102338.75;5051833;28;20065;-75
2022/03/10 08:41:49;;;;;;;46.75;20.67;;;;;;;4.80;63.84;102340.78;5052096;28;20033;-75
2022/03/10 08:44:15;;;;;;;38.95;21.05;;;;;;;4.83;62.80;102330.53;5051394;28;20039;-75
2022/03/10 08:46:41;;;;;;;45.10;21.27;;;;;;;4.91;62.03;102323.84;5051880;28;20475;-75
2022/03/10 08:49:06;;;;;;;41.95;21.67;;;;;;;5.12;61.23;102327.75;5051942;28;20041;-75
2022/03/10 08:51:31;;;;;;;44.08;21.25;;;;;;;5.23;61.46;102331.47;5045253;28;20068;-76
2022/03/10 08:53:57;;;;;;;40.55;20.30;;;;;;;5.36;60.70;102328.31;5040264;28;20028;-76
2022/03/10 08:56:22;;;;;;;37.78;19.27;;;;;;;5.50;60.71;102333.78;5046287;28;20033;-76
2022/03/10 08:58:47;;;;;;;40.15;21.10;;;;;;;5.58;60.03;102331.34;5031216;28;20108;-76
2022/03/10 09:01:12;;;;;;;42.15;20.20;;;;;;;5.70;59.20;102336.78;5031795;28;20029;-76
2022/03/10 09:03:38;;;;;;;38.50;20.55;;;;;;;5.79;60.33;102330.94;5031739;28;20029;-76
2022/03/10 09:06:10;;;;;;;42.05;20.15;;;;;;;5.91;59.61;102335.47;5031325;28;20035;-76
2022/03/10 09:08:36;;;;;;;38.00;19.83;;;;;;;6.05;59.26;102322.00;5032015;28;20503;-76
2022/03/10 09:11:02;;;;;;;37.95;20.73;;;;;;;6.21;58.14;102322.25;5032071;28;20059;-76
2022/03/10 09:13:28;;;;;;;39.25;20.27;;;;;;;6.37;58.08;102323.41;5031055;28;20035;-76
2022/03/10 09:15:54;;;;;;;37.78;19.02;;;;;;;6.51;57.27;102314.16;5031713;28;20029;-76
2022/03/10 09:18:19;;;;;;;37.88;19.80;;;;;;;6.60;56.98;102316.88;5031730;28;20384;-76
2022/03/10 09:20:44;;;;;;;44.63;21.42;;;;;;;6.77;57.21;102304.22;5030768;28;20237;-75
2022/03/10 09:23:10;;;;;;;38.05;19.23;;;;;;;6.95;56.61;102307.06;5031621;28;20087;-75
2022/03/10 09:25:35;;;;;;;39.10;20.08;;;;;;;7.09;56.12;102307.28;5031198;28;20033;-76
2022/03/10 09:28:00;;;;;;;42.45;19.55;;;;;;;7.23;56.03;102305.75;5031711;28;20034;-75
2022/03/10 09:30:26;;;;;;;39.90;20.05;;;;;;;7.29;55.62;102289.38;5031447;28;20076;-76
2022/03/10 09:32:52;;;;;;;36.90;19.60;;;;;;;7.49;55.82;102302.63;5030814;28;20029;-76
2022/03/10 09:35:17;;;;;;;38.50;20.27;;;;;;;7.61;55.49;102297.56;5051707;28;20021;-75
2022/03/10 09:37:43;;;;;;;39.00;20.15;;;;;;;7.70;54.71;102289.91;5051186;28;20028;-76
2022/03/10 09:40:10;;;;;;;41.03;21.40;;;;;;;7.83;55.05;102287.44;5050685;28;20036;-75
2022/03/10 09:42:37;;;;;;;40.78;20.42;;;;;;;7.96;55.49;102278.94;5051513;28;20025;-76
2022/03/10 09:45:09;;;;;;;44.13;21.35;;;;;;;8.08;54.94;102284.25;5051408;28;20523;-76
2022/03/10 09:47:40;;;;;;;36.15;20.42;;;;;;;8.19;54.13;102285.22;5053488;28;20028;-76
2022/03/10 09:50:10;;;;;;;40.13;20.38;;;;;;;8.29;53.08;102269.72;5071273;28;20480;-76
2022/03/10 09:52:36;;;;;;;35.58;19.90;;;;;;;8.40;53.54;102281.09;5072906;28;20052;-76
2022/03/10 09:55:02;;;;;;;39.75;20.35;;;;;;;8.49;52.47;102278.59;5050710;28;20063;-76
2022/03/10 09:57:28;;;;;;;39.83;20.63;;;;;;;8.57;53.07;102268.28;5044533;28;20037;-75
2022/03/10 09:59:57;;;;;;;35.88;19.88;;;;;;;8.70;52.93;102275.28;5045008;28;20067;-76
2022/03/10 10:02:23;;;;;;;37.78;20.77;;;;;;;8.86;53.23;102269.34;5054262;28;20031;-76
2022/03/10 10:04:49;;;;;;;38.10;20.20;;;;;;;8.94;52.16;102266.78;5054844;28;20033;-76
2022/03/10 10:07:18;;;;;;;35.50;20.05;;;;;;;9.06;51.73;102259.03;5057153;28;20655;-76
2022/03/10 10:09:56;;;;;;;35.78;20.13;;;;;;;9.13;52.54;102257.34;5074328;28;20059;-76
2022/03/10 10:12:30;;;;;;;37.60;19.45;;;;;;;9.30;51.63;102265.22;5074729;28;20469;-76
2022/03/10 10:14:57;;;;;;;36.53;19.20;;;;;;;9.42;50.93;102260.09;5048420;28;20468;-76
2022/03/10 10:17:27;;;;;;;39.13;19.60;;;;;;;9.52;51.49;102256.66;5053981;28;20067;-76
2022/03/10 10:19:57;;;;;;;36.38;21.42;;;;;;;9.63;51.49;102261.00;5054566;28;20540;-76
2022/03/10 10:22:24;;;;;;;37.25;19.63;;;;;;;9.71;51.12;102249.78;5053329;28;20047;-76
2022/03/10 10:24:55;;;;;;;35.65;20.35;;;;;;;9.78;50.85;102255.88;5053955;28;20040;-76
2022/03/10 10:27:26;;;;;;;36.50;18.95;;;;;;;9.91;49.93;102254.13;5046355;28;20108;-76
2022/03/10 10:29:55;;;;;;;33.15;16.73;;;;;;;10.02;48.97;102252.41;5033821;28;20428;-76
2022/03/10 10:32:26;;;;;;;35.97;19.42;;;;;;;10.16;49.62;102252.44;5034489;28;20469;-76
2022/03/10 10:35:07;;;;;;;32.08;19.23;;;;;;;10.27;50.39;102251.63;5034905;28;20066;-76
2022/03/10 10:37:33;;;;;;;33.45;18.45;;;;;;;10.43;49.48;102238.56;5047481;28;20029;-76
2022/03/10 10:39:59;;;;;;;33.05;19.00;;;;;;;10.49;49.49;102241.16;5045691;28;20495;-76
2022/03/10 10:42:30;;;;;;;35.42;20.55;;;;;;;10.60;48.77;102230.75;5054335;28;20029;-76
2022/03/10 10:44:57;;;;;;;35.08;19.50;;;;;;;10.75;48.22;102235.91;5053142;28;20468;-76
2022/03/10 10:47:22;;;;;;;34.10;18.58;;;;;;;10.78;47.76;102220.25;5054306;28;20040;-76
2022/03/10 10:49:59;;;;;;;34.20;18.42;;;;;;;10.93;48.84;102235.88;5055003;28;20052;-76
2022/03/10 10:52:25;;;;;;;31.85;18.23;;;;;;;11.06;48.08;102225.41;5058492;28;20029;-76
2022/03/10 10:55:04;;;;;;;28.95;17.75;;;;;;;11.20;48.54;102229.69;5053730;28;20025;-76
2022/03/10 10:57:34;;;;;;;31.08;18.42;;;;;;;11.36;48.17;102227.88;5048350;28;20029;-76
2022/03/10 11:00:11;;;;;;;29.02;16.70;;;;;;;11.47;47.75;102223.47;5043161;28;20037;-76
2022/03/10 11:02:42;;;;;;;32.33;18.00;;;;;;;11.61;46.81;102219.94;5052574;28;20028;-76
2022/03/10 11:05:11;;;;;;;32.22;17.98;;;;;;;11.76;47.87;102217.22;5067914;28;20044;-76
2022/03/10 11:07:38;;;;;;;35.58;19.08;;;;;;;11.93;46.11;102217.13;5051718;28;20032;-76
2022/03/10 11:10:04;;;;;;;34.50;17.45;;;;;;;12.08;45.96;102208.31;5053587;28;20100;-76
2022/03/10 11:12:29;;;;;;;29.50;16.70;;;;;;;12.16;45.48;102207.38;5054388;28;20044;-76
2022/03/10 11:14:55;;;;;;;32.50;18.05;;;;;;;12.24;45.14;102201.22;5046229;28;20025;-76